Time;durP1;ratioP1;P1;durP2;ratioP2;P2;SDS_P1;SDS_P2;PMS_P1;PMS_P2;Temp;Humidity;BMP_temperature;BMP_pressure;BME280_temperature;BME280_humidity;BME280_pressure;Samples;Min_cycle;Max_cycle;Signal;HPM_P1;HPM_P2
2023/07/18 00:00:27;;;;;;;4.05;1.77;;;;;;;23.05;43.07;102066.81;16121611;19;130378;-47
2023/07/18 00:05:49;;;;;;;4.03;1.02;;;;;;;23.05;43.15;102077.16;16123118;19;130763;-44
2023/07/18 00:11:12;;;;;;;4.47;1.30;;;;;;;23.03;43.19;102073.75;16119273;19;130136;-44
2023/07/18 00:16:33;;;;;;;5.75;1.20;;;;;;;23.03;43.16;102069.00;16116090;19;130956;-46
2023/07/18 00:21:56;;;;;;;2.97;1.00;;;;;;;23.02;42.82;102078.47;16117737;19;131389;-46
2023/07/18 00:27:18;;;;;;;2.10;1.20;;;;;;;23.00;43.39;102086.25;16114861;19;129882;-47
2023/07/18 00:32:42;;;;;;;2.40;1.10;;;;;;;23.01;42.80;102073.16;16113477;19;130842;-45
2023/07/18 00:38:04;;;;;;;4.35;1.30;;;;;;;22.99;43.00;102072.53;16115366;19;131366;-46
2023/07/18 00:43:32;;;;;;;2.80;1.00;;;;;;;22.98;42.92;102074.50;16112255;19;130451;-48
2023/07/18 00:48:54;;;;;;;2.13;0.90;;;;;;;22.96;43.03;102073.03;16123361;19;129561;-48
2023/07/18 00:54:17;;;;;;;2.70;1.00;;;;;;;22.95;42.97;102066.63;16115234;19;130302;-44
2023/07/18 00:59:39;;;;;;;2.17;1.00;;;;;;;22.95;43.05;102063.81;16110021;19;130754;-48
2023/07/18 01:05:02;;;;;;;3.63;0.98;;;;;;;22.93;42.96;102059.59;16119698;19;129554;-51
2023/07/18 01:10:26;;;;;;;2.10;0.90;;;;;;;22.92;42.83;102057.91;16117916;19;130597;-46
2023/07/18 01:15:48;;;;;;;2.63;1.10;;;;;;;22.89;43.00;102057.25;16115817;19;130436;-50
2023/07/18 01:21:18;;;;;;;1.83;0.90;;;;;;;22.89;43.04;102060.06;16111865;19;130970;-50
2023/07/18 01:26:41;;;;;;;1.58;0.80;;;;;;;22.87;42.92;102062.25;16108584;19;130909;-44
2023/07/18 01:32:03;;;;;;;1.30;0.90;;;;;;;22.87;42.92;102067.81;16110182;19;131595;-48
2023/07/18 01:37:25;;;;;;;1.02;0.60;;;;;;;22.85;43.06;102064.44;16107841;19;132168;-46
2023/07/18 01:42:52;;;;;;;3.95;0.90;;;;;;;22.86;43.16;102054.13;16107558;19;130185;-49
2023/07/18 01:48:14;;;;;;;1.92;1.00;;;;;;;22.84;42.92;102047.94;16107999;19;130666;-48
2023/07/18 01:53:36;;;;;;;2.80;0.90;;;;;;;22.82;43.04;102044.53;16113315;19;131384;-47
2023/07/18 01:58:58;;;;;;;2.60;0.80;;;;;;;22.81;43.34;102040.06;16110021;19;133845;-48
2023/07/18 02:04:20;;;;;;;1.50;0.70;;;;;;;22.81;42.92;102037.28;16116033;19;129637;-50
2023/07/18 02:09:42;;;;;;;1.65;0.80;;;;;;;22.79;43.04;102031.09;16113887;19;129659;-49
2023/07/18 02:15:05;;;;;;;2.13;1.13;;;;;;;22.79;43.00;102033.88;16112937;19;129960;-49
2023/07/18 02:20:27;;;;;;;1.27;0.77;;;;;;;22.77;42.91;102028.56;16107397;19;130707;-49
2023/07/18 02:25:49;;;;;;;2.05;0.75;;;;;;;22.77;42.94;102027.72;16103285;19;132592;-45
2023/07/18 02:31:11;;;;;;;1.45;0.82;;;;;;;22.76;43.01;102023.25;16107396;19;129489;-44
2023/07/18 02:36:34;;;;;;;1.70;0.70;;;;;;;22.74;43.03;102026.25;16110133;19;130634;-45
2023/07/18 02:41:56;;;;;;;2.45;0.90;;;;;;;22.74;42.97;102027.13;16107896;19;130771;-44
2023/07/18 02:47:18;;;;;;;1.15;0.82;;;;;;;22.74;42.98;102037.41;16105558;19;130996;-45
2023/07/18 02:52:40;;;;;;;2.58;0.73;;;;;;;22.72;42.88;102018.16;16103840;19;130107;-49
2023/07/18 02:58:05;;;;;;;1.48;0.77;;;;;;;22.71;42.98;102016.44;16110111;19;130262;-52
2023/07/18 03:03:27;;;;;;;3.67;0.75;;;;;;;22.70;42.99;102006.38;16106671;19;130361;-53
2023/07/18 03:08:50;;;;;;;1.00;0.68;;;;;;;22.69;42.88;102003.84;16110505;19;130349;-51
2023/07/18 03:14:14;;;;;;;8.98;0.68;;;;;;;22.70;42.84;102003.59;16112158;19;133572;-51
2023/07/18 03:19:36;;;;;;;1.02;0.60;;;;;;;22.68;42.89;102002.16;16105354;19;130413;-53
2023/07/18 03:25:05;;;;;;;0.93;0.60;;;;;;;22.68;43.19;102010.53;16110661;19;132089;-51
2023/07/18 03:30:27;;;;;;;1.15;0.70;;;;;;;22.65;42.84;102014.63;16109887;19;129584;-50
2023/07/18 03:35:49;;;;;;;1.10;0.50;;;;;;;22.64;42.95;102015.75;16105448;19;130627;-51
2023/07/18 03:41:11;;;;;;;0.82;0.60;;;;;;;22.63;42.96;102022.44;16103911;19;131709;-50
2023/07/18 03:46:33;;;;;;;1.35;0.70;;;;;;;22.63;42.81;102018.78;16102621;19;130972;-53
2023/07/18 03:51:55;;;;;;;1.33;0.73;;;;;;;22.62;42.91;102012.38;16101140;19;129585;-46
2023/07/18 03:57:16;;;;;;;0.57;0.57;;;;;;;22.61;43.00;102012.59;16101410;19;130530;-49
2023/07/18 04:02:42;;;;;;;1.73;0.60;;;;;;;22.60;42.90;102017.34;16102506;19;130094;-50
2023/07/18 04:08:07;;;;;;;0.88;0.50;;;;;;;22.58;43.14;102005.56;16104224;19;130988;-47
2023/07/18 04:13:29;;;;;;;0.52;0.50;;;;;;;22.58;43.05;102005.56;16104669;19;131423;-46
2023/07/18 04:18:51;;;;;;;0.90;0.50;;;;;;;22.57;42.71;102009.44;16101305;19;130066;-46
2023/07/18 04:24:13;;;;;;;1.05;0.68;;;;;;;22.55;42.58;101994.91;16102382;19;131858;-45
2023/07/18 04:29:35;;;;;;;1.48;0.63;;;;;;;22.54;42.93;101996.00;16102621;19;131127;-47
2023/07/18 04:34:57;;;;;;;1.33;0.70;;;;;;;22.54;42.85;101996.00;16110741;19;132658;-46
2023/07/18 04:40:19;;;;;;;0.60;0.40;;;;;;;22.54;42.89;101993.22;16109388;19;129955;-49
2023/07/18 04:45:45;;;;;;;1.52;0.60;;;;;;;22.53;42.77;101985.94;16116773;19;129837;-50
2023/07/18 04:51:07;;;;;;;2.90;0.50;;;;;;;22.53;42.49;101985.94;16114638;19;130553;-46
2023/07/18 04:56:29;;;;;;;1.08;0.60;;;;;;;22.55;42.69;101994.91;16113826;19;131280;-45
2023/07/18 05:01:53;;;;;;;1.08;0.52;;;;;;;22.54;42.75;101976.47;16113590;19;134584;-44
2023/07/18 05:07:15;;;;;;;0.98;0.80;;;;;;;22.55;42.67;101972.59;16111685;19;131029;-47
2023/07/18 05:12:38;;;;;;;0.65;0.40;;;;;;;22.54;42.92;101970.91;16115677;19;130805;-50
2023/07/18 05:18:00;;;;;;;0.82;0.43;;;;;;;22.55;42.97;101975.38;16114976;19;129717;-46
2023/07/18 05:23:22;;;;;;;0.85;0.40;;;;;;;22.59;42.91;101980.22;16113815;19;130318;-49
2023/07/18 05:28:45;;;;;;;0.50;0.40;;;;;;;22.67;42.72;101980.94;16115661;19;130330;-45
2023/07/18 05:34:07;;;;;;;2.55;0.50;;;;;;;22.77;42.67;101983.09;16104912;19;133339;-44
2023/07/18 05:39:29;;;;;;;2.38;0.50;;;;;;;22.87;42.36;101974.91;16113097;19;130734;-48
2023/07/18 05:44:51;;;;;;;4.70;0.73;;;;;;;22.98;41.90;101976.81;16106341;19;130763;-46
2023/07/18 05:50:13;;;;;;;4.63;0.70;;;;;;;23.08;41.56;101980.88;16104397;19;130355;-46
2023/07/18 05:55:35;;;;;;;5.38;0.60;;;;;;;23.13;41.60;101989.38;16105035;19;129792;-48
2023/07/18 06:00:57;;;;;;;1.83;0.50;;;;;;;23.18;41.32;101986.66;16108919;19;129959;-45
2023/07/18 06:06:19;;;;;;;3.20;0.60;;;;;;;23.24;41.11;101979.22;16114997;19;130833;-49
2023/07/18 06:11:41;;;;;;;1.83;0.60;;;;;;;23.28;40.91;101975.66;16114297;19;129777;-46
2023/07/18 06:17:03;;;;;;;1.35;0.60;;;;;;;23.32;40.95;101976.84;16115785;19;129808;-45
2023/07/18 06:22:25;;;;;;;3.95;0.63;;;;;;;23.37;40.79;101976.09;16112879;19;129635;-46
2023/07/18 06:27:47;;;;;;;1.45;0.43;;;;;;;23.41;40.73;101974.50;16110998;19;129675;-46
2023/07/18 06:33:09;;;;;;;2.78;0.90;;;;;;;23.45;40.61;101974.81;16113633;19;129687;-45
2023/07/18 06:38:32;;;;;;;1.60;0.60;;;;;;;23.49;40.30;101981.59;16114548;19;129515;-43
2023/07/18 06:43:54;;;;;;;1.25;0.70;;;;;;;23.51;40.11;101976.59;16109266;19;131836;-45
2023/07/18 06:49:18;;;;;;;4.15;0.70;;;;;;;23.56;39.83;101975.84;16111645;19;129801;-42
2023/07/18 06:54:40;;;;;;;4.33;0.80;;;;;;;23.58;39.96;101974.53;16108157;19;131788;-46
2023/07/18 07:00:04;;;;;;;3.30;0.65;;;;;;;23.62;39.73;101974.84;16111601;19;131601;-50
2023/07/18 07:05:26;;;;;;;0.93;0.50;;;;;;;23.61;39.91;101971.22;16110486;19;131734;-45
2023/07/18 07:10:48;;;;;;;4.50;0.70;;;;;;;23.61;39.80;101968.44;16108216;19;130266;-46
2023/07/18 07:16:10;;;;;;;5.32;0.85;;;;;;;23.62;39.91;101974.84;16108043;19;130793;-45
2023/07/18 07:21:32;;;;;;;7.28;0.98;;;;;;;23.63;39.53;101974.56;16104745;19;131730;-46
2023/07/18 07:26:54;;;;;;;5.57;1.33;;;;;;;23.64;39.84;101976.28;16101043;19;131786;-43
2023/07/18 07:32:16;;;;;;;3.33;0.80;;;;;;;23.67;39.46;101974.94;16107145;19;129672;-45
2023/07/18 07:37:40;;;;;;;7.55;0.63;;;;;;;23.67;39.49;101977.72;16108772;19;129886;-43
2023/07/18 07:43:02;;;;;;;5.55;1.10;;;;;;;23.68;39.25;101972.97;16110031;19;131134;-46
2023/07/18 07:48:24;;;;;;;5.30;1.15;;;;;;;23.66;39.30;101964.88;16104735;19;129864;-46
2023/07/18 07:53:47;;;;;;;6.43;1.17;;;;;;;23.70;39.15;101960.44;16096391;19;130510;-43
2023/07/18 07:59:09;;;;;;;4.78;1.02;;;;;;;23.73;39.13;101967.47;16101771;19;129540;-44
2023/07/18 08:04:32;;;;;;;8.05;1.00;;;;;;;23.72;39.10;101963.81;16102792;19;132998;-44
2023/07/18 08:09:55;;;;;;;7.75;1.10;;;;;;;23.72;39.12;101965.78;16120591;19;129452;-43
2023/07/18 08:15:17;;;;;;;4.85;1.52;;;;;;;23.72;39.11;101963.00;16119191;19;129535;-44
2023/07/18 08:20:39;;;;;;;5.82;0.85;;;;;;;23.66;39.29;101950.91;16118851;19;129988;-46
2023/07/18 08:26:01;;;;;;;8.35;1.25;;;;;;;23.65;39.29;101946.41;16123012;19;130449;-44
2023/07/18 08:31:23;;;;;;;7.70;1.00;;;;;;;23.61;39.41;101954.47;16120029;19;130726;-41
2023/07/18 08:36:47;;;;;;;5.68;1.27;;;;;;;23.62;39.33;101953.38;16121073;19;130614;-45
2023/07/18 08:42:13;;;;;;;2.83;0.65;;;;;;;23.63;39.22;101955.03;16119178;19;129870;-44
2023/07/18 08:47:37;;;;;;;4.32;1.00;;;;;;;23.59;39.50;101941.84;16120795;19;130521;-45
2023/07/18 08:52:59;;;;;;;3.00;0.70;;;;;;;23.50;39.49;101928.28;16119900;19;129417;-44
2023/07/18 08:58:25;;;;;;;3.35;0.93;;;;;;;23.33;39.11;101922.72;16120656;19;130137;-46
2023/07/18 09:03:47;;;;;;;3.30;0.90;;;;;;;22.95;40.12;101924.28;16119122;19;130681;-46
2023/07/18 09:09:16;;;;;;;5.95;0.80;;;;;;;22.74;40.45;101909.97;16117431;19;129445;-47
2023/07/18 09:14:38;;;;;;;4.55;0.85;;;;;;;22.64;41.09;101901.41;16119565;19;130392;-42
2023/07/18 09:20:07;;;;;;;2.05;0.50;;;;;;;22.60;40.95;101905.78;16117638;19;129803;-47
2023/07/18 09:25:30;;;;;;;7.38;1.20;;;;;;;22.55;40.95;101900.09;16118274;19;131460;-43
2023/07/18 09:30:52;;;;;;;3.00;0.60;;;;;;;22.53;41.07;101899.50;16119935;19;129907;-44
2023/07/18 09:36:18;;;;;;;3.25;0.73;;;;;;;22.51;40.93;101896.13;16116204;19;129435;-44
2023/07/18 09:41:40;;;;;;;6.03;0.60;;;;;;;22.49;41.11;101884.38;16118266;19;129519;-44
2023/07/18 09:47:03;;;;;;;3.08;0.57;;;;;;;22.48;40.96;101877.94;16114485;19;129779;-43
2023/07/18 09:52:27;;;;;;;1.02;0.38;;;;;;;22.44;41.19;101872.00;16105440;19;130898;-43
2023/07/18 09:57:53;;;;;;;6.63;0.70;;;;;;;22.66;41.04;101862.94;16103565;19;129682;-45
2023/07/18 10:03:15;;;;;;;2.28;0.50;;;;;;;22.87;40.59;101846.56;16109251;19;130272;-46
2023/07/18 10:08:39;;;;;;;4.63;0.52;;;;;;;22.99;40.16;101839.00;16115702;19;133917;-45
2023/07/18 10:14:04;;;;;;;2.72;0.65;;;;;;;23.05;39.78;101829.59;16114700;19;131318;-44
2023/07/18 10:19:28;;;;;;;2.50;0.60;;;;;;;23.10;40.11;101827.97;16111496;19;130814;-42
2023/07/18 10:24:50;;;;;;;4.03;0.63;;;;;;;23.14;39.85;101837.53;16112711;19;131339;-42
2023/07/18 10:30:15;;;;;;;3.45;0.70;;;;;;;23.17;39.66;101839.81;16105725;19;131298;-45
2023/07/18 10:35:43;;;;;;;1.40;0.45;;;;;;;23.20;39.62;101828.13;16111993;19;131116;-44
2023/07/18 10:41:05;;;;;;;3.65;0.60;;;;;;;23.22;39.70;101828.72;16110619;19;130639;-43
2023/07/18 10:46:38;;;;;;;1.48;0.55;;;;;;;23.25;39.36;101828.22;16109141;19;129510;-42
2023/07/18 10:52:00;;;;;;;2.60;0.70;;;;;;;23.24;39.45;101820.09;16109699;19;131173;-49
2023/07/18 10:57:24;;;;;;;3.95;0.70;;;;;;;23.23;39.46;101833.22;16105572;19;131438;-44
2023/07/18 11:02:46;;;;;;;3.80;0.98;;;;;;;23.24;39.42;101839.63;16105219;19;129470;-45
2023/07/18 11:08:08;;;;;;;2.08;0.60;;;;;;;23.23;39.40;101838.78;16101614;19;129532;-44
2023/07/18 11:13:35;;;;;;;8.77;0.60;;;;;;;23.24;39.35;101822.88;16103329;19;130110;-42
2023/07/18 11:18:59;;;;;;;5.25;0.80;;;;;;;23.28;39.14;101830.47;16102318;19;131221;-48
2023/07/18 11:24:24;;;;;;;2.73;0.70;;;;;;;23.34;39.19;101828.59;16103728;19;129746;-47
2023/07/18 11:29:57;;;;;;;5.82;0.60;;;;;;;23.35;39.11;101813.53;16108380;19;129610;-49
2023/07/18 11:35:22;;;;;;;2.90;0.70;;;;;;;23.33;39.18;101805.44;16109311;19;129565;-45
2023/07/18 11:40:44;;;;;;;3.70;0.73;;;;;;;23.31;38.93;101807.63;16106892;19;130860;-47
2023/07/18 11:46:06;;;;;;;3.03;0.70;;;;;;;23.30;38.95;101810.69;16113861;19;131378;-51
2023/07/18 11:51:30;;;;;;;5.60;0.60;;;;;;;23.29;38.62;101793.09;16119931;19;129457;-48
2023/07/18 11:56:52;;;;;;;3.88;0.68;;;;;;;23.29;38.73;101792.25;16119982;19;129675;-43
2023/07/18 12:02:14;;;;;;;3.03;0.65;;;;;;;23.29;38.47;101775.50;16119513;19;130580;-50
2023/07/18 12:07:36;;;;;;;4.45;0.85;;;;;;;23.28;38.73;101769.06;16123542;19;130801;-46
2023/07/18 12:12:58;;;;;;;2.92;0.60;;;;;;;23.28;38.69;101763.47;16122897;19;129921;-49
2023/07/18 12:18:20;;;;;;;1.77;0.52;;;;;;;23.29;38.55;101762.38;16118754;19;130880;-49
2023/07/18 12:23:42;;;;;;;3.25;0.60;;;;;;;23.28;38.63;101746.72;16118960;19;129501;-49
2023/07/18 12:29:05;;;;;;;2.70;0.52;;;;;;;23.28;38.78;101741.13;16120731;19;131307;-49
2023/07/18 12:34:27;;;;;;;2.78;0.60;;;;;;;23.28;38.76;101732.75;16123678;19;129313;-45
2023/07/18 12:39:49;;;;;;;2.45;0.60;;;;;;;23.28;38.68;101718.81;16121650;19;130643;-46
2023/07/18 12:45:11;;;;;;;3.15;0.68;;;;;;;23.29;38.78;101700.97;16117639;19;130627;-44
2023/07/18 12:50:33;;;;;;;2.00;0.50;;;;;;;23.28;38.62;101702.06;16120746;19;130166;-45
2023/07/18 12:55:55;;;;;;;4.18;0.60;;;;;;;23.29;38.52;101689.78;16117418;19;129899;-47
2023/07/18 13:01:17;;;;;;;4.47;0.98;;;;;;;23.29;38.73;101689.78;16116027;19;134543;-46
2023/07/18 13:06:39;;;;;;;0.73;0.40;;;;;;;23.29;38.93;101681.41;16120529;19;131087;-51
2023/07/18 13:12:01;;;;;;;2.10;0.57;;;;;;;23.30;38.54;101673.91;16121774;19;130565;-47
2023/07/18 13:17:23;;;;;;;2.17;0.50;;;;;;;23.29;38.60;101664.66;16121112;19;129572;-49
2023/07/18 13:22:46;;;;;;;1.63;0.50;;;;;;;23.30;38.06;101669.16;16114234;19;130487;-46
2023/07/18 13:28:08;;;;;;;3.88;0.85;;;;;;;23.32;37.73;101661.34;16115893;19;129406;-44
2023/07/18 13:33:31;;;;;;;5.60;1.20;;;;;;;23.35;37.15;101660.84;16117458;19;131020;-46
2023/07/18 13:38:53;;;;;;;4.80;0.98;;;;;;;23.37;37.36;101654.97;16118789;19;129893;-54
2023/07/18 13:44:15;;;;;;;14.45;1.70;;;;;;;23.38;37.25;101647.47;16119628;19;130275;-54
2023/07/18 13:49:37;;;;;;;9.80;0.85;;;;;;;23.37;37.12;101649.41;16120903;19;129437;-53
2023/07/18 13:55:01;;;;;;;11.65;1.25;;;;;;;23.35;37.41;101646.88;16115929;19;130514;-53
2023/07/18 14:00:24;;;;;;;5.82;0.88;;;;;;;23.36;36.99;101642.13;16113182;19;131249;-54
2023/07/18 14:05:45;;;;;;;4.88;1.00;;;;;;;23.37;37.08;101637.41;16114420;19;129553;-52
2023/07/18 14:11:08;;;;;;;4.97;0.85;;;;;;;23.35;37.20;101627.34;16113145;19;129674;-48
2023/07/18 14:16:29;;;;;;;4.53;0.80;;;;;;;23.36;37.25;101617.00;16115475;19;129680;-52
2023/07/18 14:21:51;;;;;;;4.53;0.98;;;;;;;23.35;37.17;101616.16;16117178;19;131467;-52
2023/07/18 14:27:16;;;;;;;3.08;0.90;;;;;;;23.35;37.69;101602.22;16113551;19;130452;-52
2023/07/18 14:32:38;;;;;;;1.75;0.93;;;;;;;23.36;37.47;101597.47;16112502;19;130649;-48
2023/07/18 14:38:00;;;;;;;3.78;0.68;;;;;;;23.37;37.19;101587.97;16115766;19;129897;-45
2023/07/18 14:43:30;;;;;;;5.20;0.77;;;;;;;23.39;37.28;101579.31;16109642;19;130681;-48
2023/07/18 14:48:52;;;;;;;4.45;1.00;;;;;;;23.37;37.27;101576.81;16112859;19;129707;-48
2023/07/18 14:54:16;;;;;;;2.63;0.80;;;;;;;23.38;37.43;101569.28;16112527;19;130255;-45
2023/07/18 14:59:39;;;;;;;1.92;0.90;;;;;;;23.38;37.56;101569.28;16112234;19;129667;-48
2023/07/18 15:05:01;;;;;;;3.15;0.80;;;;;;;23.38;37.46;101563.72;16110130;19;129773;-50
2023/07/18 15:10:23;;;;;;;3.97;0.98;;;;;;;23.39;37.15;101554.19;16108236;19;130420;-46
2023/07/18 15:15:45;;;;;;;4.50;1.00;;;;;;;23.40;37.14;101561.47;16104869;19;130104;-49
2023/07/18 15:21:08;;;;;;;2.95;1.00;;;;;;;23.43;36.87;101549.78;16106101;19;130046;-46
2023/07/18 15:26:32;;;;;;;;;;;;;;;23.39;37.14;101543.88;16107960;19;129948;-45
2023/07/18 15:31:55;;;;;;;3.70;1.15;;;;;;;23.43;36.84;101541.41;16110153;19;130451;-45
2023/07/18 15:37:16;;;;;;;2.70;0.80;;;;;;;23.41;36.93;101530.50;16104000;19;130256;-44
2023/07/18 15:42:40;;;;;;;3.35;1.40;;;;;;;23.43;37.05;101527.44;16109709;19;131293;-46
2023/07/18 15:48:02;;;;;;;2.42;0.90;;;;;;;23.43;37.18;101516.28;16108515;19;130901;-43
2023/07/18 15:53:24;;;;;;;2.97;0.95;;;;;;;23.45;37.31;101514.88;16108184;19;132335;-47
2023/07/18 15:58:46;;;;;;;4.43;1.10;;;;;;;23.48;37.19;101502.38;16107222;19;130156;-43
2023/07/18 16:04:09;;;;;;;3.17;1.38;;;;;;;23.49;37.29;101484.50;16104382;19;130557;-43
2023/07/18 16:09:31;;;;;;;3.88;1.60;;;;;;;23.51;37.14;101488.72;16105683;19;129974;-42
2023/07/18 16:14:53;;;;;;;4.00;1.50;;;;;;;23.53;37.32;101477.25;16103933;19;130372;-46
2023/07/18 16:20:15;;;;;;;3.53;1.77;;;;;;;23.53;37.34;101463.28;16107210;19;129784;-45
2023/07/18 16:25:37;;;;;;;4.88;1.98;;;;;;;23.56;37.24;101457.19;16105336;19;129805;-47
2023/07/18 16:30:59;;;;;;;3.80;1.83;;;;;;;23.56;37.37;101456.34;16118858;19;129209;-45
2023/07/18 16:36:21;;;;;;;4.97;1.73;;;;;;;23.58;37.13;101438.25;16120968;19;129541;-43
2023/07/18 16:41:44;;;;;;;2.97;1.50;;;;;;;23.60;37.43;101447.22;16125032;19;130757;-45
2023/07/18 16:47:06;;;;;;;3.70;1.60;;;;;;;23.61;37.45;101442.44;16121906;19;129588;-46
2023/07/18 16:52:28;;;;;;;3.88;1.63;;;;;;;23.61;37.43;101443.31;16120368;19;130162;-49
2023/07/18 16:57:50;;;;;;;3.33;1.95;;;;;;;23.61;37.89;101440.50;16116748;19;130202;-47
2023/07/18 17:03:13;;;;;;;7.18;3.75;;;;;;;23.62;37.84;101442.19;16116873;19;134256;-46
2023/07/18 17:08:35;;;;;;;8.93;3.83;;;;;;;23.63;37.89;101441.06;16120033;19;129827;-44
2023/07/18 17:13:57;;;;;;;10.18;3.47;;;;;;;23.62;37.92;101431.03;16121848;19;129668;-47
2023/07/18 17:19:19;;;;;;;6.95;3.50;;;;;;;23.63;37.91;101434.66;16118456;19;130832;-45
2023/07/18 17:24:41;;;;;;;6.13;3.38;;;;;;;23.63;38.38;101434.66;16120445;19;129849;-47
2023/07/18 17:30:04;;;;;;;6.32;3.50;;;;;;;23.64;37.89;101439.13;16116617;19;129522;-46
2023/07/18 17:35:27;;;;;;;8.55;3.40;;;;;;;23.64;37.96;101433.53;16115324;19;129945;-44
2023/07/18 17:40:48;;;;;;;8.65;3.88;;;;;;;23.65;38.20;101440.81;16112502;19;130452;-43
2023/07/18 17:46:10;;;;;;;5.03;3.05;;;;;;;23.66;38.15;101431.31;16117949;19;129617;-46
2023/07/18 17:51:32;;;;;;;5.45;2.95;;;;;;;23.68;37.96;101425.47;16114014;19;130980;-44
2023/07/18 17:56:54;;;;;;;4.90;3.00;;;;;;;23.68;37.79;101420.72;16107131;19;131376;-46
2023/07/18 18:02:16;;;;;;;4.93;2.75;;;;;;;23.71;38.54;101430.50;16102061;19;129507;-43
2023/07/18 18:07:38;;;;;;;8.57;2.88;;;;;;;23.70;38.12;101424.06;16104838;19;131174;-43
2023/07/18 18:13:01;;;;;;;6.47;3.40;;;;;;;23.70;38.31;101420.44;16107358;19;131910;-42
2023/07/18 18:18:25;;;;;;;5.85;2.88;;;;;;;23.67;38.36;101416.25;16110128;19;130258;-44
2023/07/18 18:23:47;;;;;;;8.13;3.15;;;;;;;23.64;38.49;101420.41;16105097;19;130601;-49
2023/07/18 18:29:09;;;;;;;4.90;2.88;;;;;;;23.65;38.47;101419.28;16110307;19;129871;-45
2023/07/18 18:34:31;;;;;;;4.78;2.70;;;;;;;23.66;38.83;101412.59;16107290;19;131019;-46
2023/07/18 18:39:53;;;;;;;6.80;2.95;;;;;;;23.71;38.60;101408.16;16110515;19;130352;-46
2023/07/18 18:45:15;;;;;;;10.75;2.97;;;;;;;23.73;38.90;101412.38;16112807;19;129994;-49
2023/07/18 18:50:39;;;;;;;9.93;3.55;;;;;;;23.74;38.54;101410.44;16111003;19;129685;-43
2023/07/18 18:56:01;;;;;;;8.45;2.60;;;;;;;23.74;38.71;101413.22;16112208;19;131070;-41
2023/07/18 19:01:22;;;;;;;7.53;2.80;;;;;;;23.77;38.76;101421.03;16112130;19;131596;-44
2023/07/18 19:06:45;;;;;;;10.02;3.08;;;;;;;23.78;38.90;101414.34;16108771;19;129400;-42
2023/07/18 19:12:07;;;;;;;7.03;2.72;;;;;;;23.79;38.91;101421.63;16108627;19;130648;-46
2023/07/18 19:17:29;;;;;;;5.47;2.78;;;;;;;23.78;38.56;101429.16;16107899;19;129630;-45
2023/07/18 19:22:54;;;;;;;8.98;2.67;;;;;;;23.78;38.34;101417.13;16103812;19;130592;-44
2023/07/18 19:28:17;;;;;;;8.60;2.58;;;;;;;23.79;38.61;101427.19;16108762;19;129673;-43
2023/07/18 19:33:39;;;;;;;5.53;2.38;;;;;;;23.78;38.81;101418.00;16107572;19;131166;-45
2023/07/18 19:39:01;;;;;;;4.60;2.10;;;;;;;23.78;38.50;101419.94;16107678;19;130257;-47
2023/07/18 19:44:23;;;;;;;6.53;2.80;;;;;;;23.78;38.51;101420.78;16107589;19;129874;-46
2023/07/18 19:49:46;;;;;;;5.85;2.60;;;;;;;23.77;38.56;101419.09;16107552;19;131077;-48
2023/07/18 19:55:09;;;;;;;4.75;2.10;;;;;;;23.80;38.53;101434.47;16107390;19;131675;-45
2023/07/18 20:00:31;;;;;;;25.55;3.25;;;;;;;23.76;38.93;101425.78;16105933;19;130743;-47
2023/07/18 20:05:53;;;;;;;21.33;3.40;;;;;;;23.73;38.85;101433.88;16120172;19;129612;-43
2023/07/18 20:11:15;;;;;;;12.00;2.63;;;;;;;23.70;39.34;101428.81;16124253;19;130379;-46
2023/07/18 20:16:37;;;;;;;23.20;3.00;;;;;;;23.69;39.37;101427.13;16119049;19;129917;-51
2023/07/18 20:21:59;;;;;;;9.77;2.22;;;;;;;23.68;39.41;101436.63;16119141;19;129344;-50
2023/07/18 20:27:21;;;;;;;9.00;2.67;;;;;;;23.65;39.45;101427.66;16121615;19;130629;-48
2023/07/18 20:32:43;;;;;;;12.25;2.70;;;;;;;23.66;39.63;101425.75;16114344;19;130283;-45
2023/07/18 20:38:06;;;;;;;25.92;3.17;;;;;;;23.66;39.57;101428.53;16113201;19;132162;-47
2023/07/18 20:43:28;;;;;;;19.63;2.67;;;;;;;23.63;39.72;101429.06;16114273;19;131445;-47
2023/07/18 20:48:50;;;;;;;18.08;2.63;;;;;;;23.60;39.58;101427.66;16109350;19;130298;-48
2023/07/18 20:54:12;;;;;;;12.10;2.40;;;;;;;23.57;39.87;101430.94;16118916;19;130415;-48
2023/07/18 20:59:34;;;;;;;9.15;2.30;;;;;;;23.53;39.58;101440.97;16115070;19;131345;-49
2023/07/18 21:04:56;;;;;;;11.35;2.50;;;;;;;23.50;39.53;101430.34;16114231;19;131090;-48
2023/07/18 21:10:18;;;;;;;9.15;2.78;;;;;;;23.48;39.79;101433.38;16118071;19;129580;-54
2023/07/18 21:15:41;;;;;;;11.75;2.28;;;;;;;23.47;39.70;101437.28;16113120;19;130011;-50
2023/07/18 21:21:03;;;;;;;11.38;2.50;;;;;;;23.44;39.85;101431.41;16116821;19;130920;-53
2023/07/18 21:26:26;;;;;;;8.77;2.03;;;;;;;23.42;39.87;101426.09;16114268;19;130278;-50
2023/07/18 21:31:48;;;;;;;8.30;1.90;;;;;;;23.42;39.88;101416.84;16118887;19;129371;-52
2023/07/18 21:37:10;;;;;;;6.72;1.90;;;;;;;23.39;39.85;101429.41;16115823;19;130397;-52
2023/07/18 21:42:32;;;;;;;7.28;1.83;;;;;;;23.38;39.84;101424.94;16116447;19;129637;-53
2023/07/18 21:47:54;;;;;;;9.20;2.45;;;;;;;23.38;39.98;101426.91;16091149;19;132486;-51
2023/07/18 21:53:16;;;;;;;8.48;2.05;;;;;;;23.37;40.25;101425.22;16113036;19;130048;-47
2023/07/18 21:58:38;;;;;;;5.55;1.98;;;;;;;23.34;39.87;101424.63;16108336;19;131092;-45
2023/07/18 22:04:00;;;;;;;4.53;1.95;;;;;;;23.32;40.34;101424.06;16102282;19;130008;-47
2023/07/18 22:09:22;;;;;;;4.10;1.90;;;;;;;23.32;40.06;101417.63;16101723;19;130640;-47
2023/07/18 22:14:44;;;;;;;5.32;1.80;;;;;;;23.30;39.99;101412.31;16110502;19;129521;-44
2023/07/18 22:20:09;;;;;;;6.53;1.88;;;;;;;23.29;39.87;101413.41;16110463;19;130546;-43
2023/07/18 22:25:31;;;;;;;5.22;1.80;;;;;;;23.28;40.03;101420.09;16112926;19;130473;-47
2023/07/18 22:30:53;;;;;;;7.00;1.70;;;;;;;23.27;40.01;101412.00;16111946;19;129670;-43
2023/07/18 22:36:15;;;;;;;5.05;1.70;;;;;;;23.25;39.95;101403.03;16108100;19;130954;-43
2023/07/18 22:41:37;;;;;;;3.65;1.75;;;;;;;23.24;40.13;101396.63;16114794;19;130833;-45
2023/07/18 22:46:59;;;;;;;3.95;1.83;;;;;;;23.22;39.81;101401.63;16104605;19;131092;-48
2023/07/18 22:52:21;;;;;;;5.45;2.08;;;;;;;23.22;40.22;101407.22;16109344;19;130944;-43
2023/07/18 22:57:43;;;;;;;3.47;1.75;;;;;;;23.22;39.99;101400.78;16107732;19;131272;-42
2023/07/18 23:03:06;;;;;;;5.60;1.77;;;;;;;23.20;40.61;101403.84;16104261;19;130992;-44
2023/07/18 23:08:28;;;;;;;5.25;1.92;;;;;;;23.19;40.19;101402.16;16109020;19;130428;-43
2023/07/18 23:13:50;;;;;;;4.97;1.60;;;;;;;23.19;40.32;101402.16;16108308;19;131276;-47
2023/07/18 23:19:12;;;;;;;2.95;1.50;;;;;;;23.17;40.23;101405.22;16106145;19;130491;-44
2023/07/18 23:24:34;;;;;;;3.13;1.42;;;;;;;23.17;40.48;101407.16;16101659;19;131867;-48
2023/07/18 23:29:55;;;;;;;5.00;1.77;;;;;;;23.16;40.47;101402.69;16108711;19;129870;-47
2023/07/18 23:35:17;;;;;;;3.65;1.75;;;;;;;23.14;40.32;101394.59;16110254;19;133855;-45
2023/07/18 23:40:39;;;;;;;2.55;1.20;;;;;;;23.14;40.28;101388.19;16117112;19;130857;-44
2023/07/18 23:46:03;;;;;;;3.67;1.77;;;;;;;23.13;40.09;101386.50;16122274;19;130903;-46
2023/07/18 23:51:25;;;;;;;4.72;1.60;;;;;;;23.12;40.70;101382.84;16124010;19;129870;-43
2023/07/18 23:56:47;;;;;;;4.43;1.90;;;;;;;23.12;40.46;101382.03;16122276;19;130340;-44
